Spittal an der Drau, Austria
Current Conditions -  °F | °C
As of 11:20 PM on Wednesday 26 Nov 2014 (Local Time) from LOWK Reporting Station
Broken Clouds Broken Clouds  
Wind Chill: 37°   Ceiling: 2800
Heat Index: 37°   Visibility: 6mi
Dew Point: 32°   Wind: 2mph
Humidity: 81%   Direction: NA
Pressure: 30.09"   Gusts: NA
Location:  46.8°N, 13.5°E
Report Text: LOWK 262120Z VRB02KT 9999 SCT023 BKN028 03/00 Q1019 NOSIG
Loading
Personal Weather Stations






























Interactive Weather Map New forecast layout! Learn more

10-Day Weather Forecast

Advertisements
Track Severe Weather on mobile